UUYY 272000Z 06002MPS CAVOK M01/M04 Q1025 R36/CLRD61 NOSIG RMK QFE760/1013
QNH:(hPa/inHg/mmHg)1025 / 30.27 / 769
QFE:(hPa/inHg/mmHg)1012 / 29.90 / 759
Temperature-1
Dew Point-4
Visibility> 10000
WeatherCAVOK
Cloud Cover
Transition Height3000 m./10200 ft.
Transition LevelFL110
SQUAWK